Time;durP1;ratioP1;P1;durP2;ratioP2;P2;SDS_P1;SDS_P2;PMS_P1;PMS_P2;Temp;Humidity;BMP_temperature;BMP_pressure;BME280_temperature;BME280_humidity;BME280_pressure;Samples;Min_cycle;Max_cycle;Signal;HPM_P1;HPM_P2
2023/02/26 00:02:24;;;;;;;0.73;0.70;;;2.40;78.20;;;;;;5099518;28;20078;-66
2023/02/26 00:04:50;;;;;;;0.70;0.70;;;2.40;78.30;;;;;;5098441;28;20023;-67
2023/02/26 00:07:15;;;;;;;0.70;0.70;;;2.40;78.40;;;;;;5099478;28;20043;-67
2023/02/26 00:09:41;;;;;;;0.90;0.90;;;2.30;78.40;;;;;;5099300;28;20368;-67
2023/02/26 00:12:09;;;;;;;0.70;0.70;;;2.30;79.20;;;;;;5100311;28;20031;-66
2023/02/26 00:14:35;;;;;;;0.52;0.52;;;2.30;78.60;;;;;;5097865;28;20034;-66
2023/02/26 00:17:20;;;;;;;0.95;0.85;;;2.30;78.60;;;;;;5097646;28;20028;-67
2023/02/26 00:19:46;;;;;;;0.60;0.60;;;2.30;78.60;;;;;;5103941;28;20165;-67
2023/02/26 00:22:12;;;;;;;0.60;0.60;;;2.30;78.60;;;;;;5091507;28;20118;-68
2023/02/26 00:24:38;;;;;;;0.60;0.60;;;2.30;78.60;;;;;;5090149;28;20482;-67
2023/02/26 00:27:03;;;;;;;1.38;0.70;;;2.30;78.60;;;;;;5091829;27;20035;-67
2023/02/26 00:29:29;;;;;;;0.70;0.70;;;2.20;78.60;;;;;;5090845;28;20141;-67
2023/02/26 00:31:55;;;;;;;0.70;0.70;;;2.20;78.70;;;;;;5099797;28;20379;-67
2023/02/26 00:34:21;;;;;;;1.20;0.50;;;2.20;78.80;;;;;;5092196;28;20094;-66
2023/02/26 00:37:17;;;;;;;1.85;0.68;;;2.20;78.80;;;;;;5095681;28;20020;-67
2023/02/26 00:39:45;;;;;;;0.70;0.70;;;2.20;78.90;;;;;;5095275;28;20059;-67
2023/02/26 00:42:12;;;;;;;1.00;0.70;;;2.20;78.90;;;;;;5097812;28;20034;-67
2023/02/26 00:44:38;;;;;;;0.57;0.57;;;2.10;78.90;;;;;;5097058;28;20024;-66
2023/02/26 00:47:13;;;;;;;0.77;0.70;;;2.20;79.00;;;;;;5112105;28;20107;-67
2023/02/26 00:50:09;;;;;;;0.70;0.70;;;2.10;79.00;;;;;;5105919;28;20016;-67
2023/02/26 00:52:40;;;;;;;0.82;0.60;;;2.10;79.00;;;;;;5100694;27;20613;-67
2023/02/26 00:55:06;;;;;;;0.70;0.70;;;2.10;78.90;;;;;;5099896;28;20032;-67
2023/02/26 00:57:31;;;;;;;0.60;0.60;;;2.10;79.00;;;;;;5098362;28;20016;-65
2023/02/26 00:59:57;;;;;;;0.60;0.60;;;2.10;79.00;;;;;;5110087;28;20026;-66
2023/02/26 01:02:23;;;;;;;0.80;0.80;;;2.10;79.00;;;;;;5098514;28;20371;-66
2023/02/26 01:04:49;;;;;;;0.75;0.75;;;2.10;79.00;;;;;;5107073;28;20507;-66
2023/02/26 01:07:19;;;;;;;0.60;0.60;;;2.10;79.10;;;;;;5098881;28;20024;-65
2023/02/26 01:09:44;;;;;;;0.55;0.55;;;2.10;79.20;;;;;;5099213;28;20015;-66
2023/02/26 01:12:12;;;;;;;0.50;0.50;;;2.10;79.20;;;;;;5103136;27;20478;-65
2023/02/26 01:14:38;;;;;;;0.73;0.60;;;2.10;79.20;;;;;;5115751;27;20019;-66
2023/02/26 01:17:52;;;;;;;0.55;0.55;;;2.10;79.20;;;;;;5109531;27;20023;-67
2023/02/26 01:20:21;;;;;;;0.80;0.80;;;2.10;79.30;;;;;;5063212;28;20071;-66
2023/02/26 01:22:54;;;;;;;0.50;0.50;;;2.10;79.20;;;;;;5053083;28;20658;-66
2023/02/26 01:25:53;;;;;;;0.75;0.68;;;2.10;79.20;;;;;;5087449;28;20115;-66
2023/02/26 01:28:19;;;;;;;0.60;0.60;;;2.10;79.20;;;;;;5090763;28;20046;-66
2023/02/26 01:30:45;;;;;;;0.60;0.60;;;2.10;79.20;;;;;;5102705;27;20024;-65
2023/02/26 01:33:34;;;;;;;0.60;0.60;;;2.10;79.20;;;;;;5113526;27;20076;-66
2023/02/26 01:36:08;;;;;;;0.80;0.80;;;2.10;79.20;;;;;;5105496;27;20050;-66
2023/02/26 01:38:54;;;;;;;0.70;0.70;;;2.10;79.20;;;;;;5094783;28;20019;-66
2023/02/26 01:41:37;;;;;;;0.70;0.70;;;2.10;79.20;;;;;;5112216;27;20435;-66
2023/02/26 01:44:28;;;;;;;0.68;0.68;;;2.10;79.20;;;;;;5101727;27;20550;-66
2023/02/26 01:47:03;;;;;;;0.68;0.68;;;2.10;79.30;;;;;;5103726;27;20034;-66
2023/02/26 01:49:29;;;;;;;0.60;0.60;;;2.00;79.30;;;;;;5099752;27;20059;-65
2023/02/26 01:52:06;;;;;;;1.10;0.70;;;2.00;79.30;;;;;;5106447;27;20024;-65
2023/02/26 01:54:34;;;;;;;0.70;0.70;;;2.00;79.40;;;;;;5111100;27;20032;-66
2023/02/26 01:57:13;;;;;;;1.20;0.60;;;2.00;79.30;;;;;;5117872;27;20027;-66
2023/02/26 01:59:43;;;;;;;0.60;0.60;;;2.00;79.50;;;;;;5105219;27;20024;-66
2023/02/26 02:02:12;;;;;;;0.60;0.60;;;1.90;79.50;;;;;;5102894;27;20027;-66
2023/02/26 02:04:39;;;;;;;0.60;0.60;;;1.90;79.60;;;;;;5104925;27;20390;-66
2023/02/26 02:07:05;;;;;;;0.70;0.70;;;1.90;79.60;;;;;;5110436;27;20051;-66
2023/02/26 02:09:31;;;;;;;0.70;0.70;;;1.90;79.60;;;;;;5110489;27;20031;-66
2023/02/26 02:12:18;;;;;;;0.70;0.70;;;1.90;79.60;;;;;;5116038;27;20030;-66
2023/02/26 02:15:21;;;;;;;0.80;0.80;;;1.90;79.70;;;;;;5103268;27;20051;-66
2023/02/26 02:18:12;;;;;;;;;;;1.80;79.50;;;;;;5098668;27;20032;-66
2023/02/26 02:21:08;;;;;;;1.05;0.70;;;1.80;79.60;;;;;;5083676;28;19919;-67
2023/02/26 02:23:46;;;;;;;0.55;0.55;;;1.70;79.60;;;;;;5100973;28;20076;-67
2023/02/26 02:26:37;;;;;;;0.60;0.60;;;1.80;79.70;;;;;;5100692;27;20024;-66
2023/02/26 02:29:08;;;;;;;0.60;0.60;;;1.70;79.70;;;;;;5101190;28;20039;-67
2023/02/26 02:31:44;;;;;;;0.75;0.75;;;1.70;79.70;;;;;;5097942;28;20016;-66
2023/02/26 02:34:22;;;;;;;0.70;0.70;;;1.70;79.80;;;;;;5102044;28;20024;-65
2023/02/26 02:36:57;;;;;;;0.85;0.85;;;1.60;79.70;;;;;;5099520;28;20024;-66
2023/02/26 02:39:41;;;;;;;0.70;0.70;;;1.70;79.90;;;;;;5098278;28;20020;-66
2023/02/26 02:42:14;;;;;;;0.60;0.60;;;1.60;79.80;;;;;;5101184;28;20055;-65
2023/02/26 02:44:45;;;;;;;0.70;0.70;;;1.60;79.80;;;;;;5099809;28;20040;-65
2023/02/26 02:47:14;;;;;;;0.68;0.68;;;1.50;79.80;;;;;;5105035;28;20027;-66
2023/02/26 02:50:05;;;;;;;0.70;0.70;;;1.60;79.90;;;;;;5113991;27;20093;-66
2023/02/26 02:52:41;;;;;;;0.63;0.63;;;1.50;79.90;;;;;;5109269;28;20031;-65
2023/02/26 02:55:21;;;;;;;0.60;0.60;;;1.50;79.80;;;;;;5102720;28;20032;-65
2023/02/26 02:58:18;;;;;;;0.60;0.60;;;1.50;79.90;;;;;;5101702;28;20019;-65
2023/02/26 03:00:53;;;;;;;0.95;0.70;;;1.60;80.20;;;;;;5094020;27;20044;-65
2023/02/26 03:03:29;;;;;;;0.65;0.65;;;1.50;79.80;;;;;;5093140;27;20063;-66
2023/02/26 03:05:55;;;;;;;0.70;0.70;;;1.50;79.80;;;;;;5106503;27;20028;-66
2023/02/26 03:08:26;;;;;;;0.60;0.60;;;1.50;79.80;;;;;;5100125;28;20046;-66
2023/02/26 03:10:52;;;;;;;0.70;0.70;;;1.50;79.80;;;;;;5104080;28;20031;-66
2023/02/26 03:13:21;;;;;;;0.60;0.60;;;1.40;79.80;;;;;;5100238;28;20036;-66
2023/02/26 03:16:26;;;;;;;0.68;0.68;;;1.40;79.80;;;;;;5100502;28;20027;-67
2023/02/26 03:19:01;;;;;;;0.70;0.70;;;1.40;80.00;;;;;;5102787;28;20111;-67
2023/02/26 03:21:47;;;;;;;0.60;0.60;;;1.40;79.90;;;;;;5100674;28;20035;-66
2023/02/26 03:24:37;;;;;;;0.60;0.60;;;1.40;79.90;;;;;;5094778;28;20076;-67
2023/02/26 03:27:29;;;;;;;0.60;0.60;;;1.40;79.90;;;;;;5107086;28;20032;-66
2023/02/26 03:30:04;;;;;;;0.50;0.50;;;1.40;80.00;;;;;;5098147;28;20019;-65
2023/02/26 03:32:40;;;;;;;0.68;0.68;;;1.40;79.90;;;;;;5103852;28;20027;-66
2023/02/26 03:35:21;;;;;;;0.75;0.60;;;1.40;80.00;;;;;;5102257;28;20024;-67
2023/02/26 03:37:50;;;;;;;0.60;0.60;;;1.40;80.00;;;;;;5092375;28;20485;-66
2023/02/26 03:40:23;;;;;;;0.95;0.70;;;1.40;80.00;;;;;;5100348;28;20036;-66
2023/02/26 03:43:13;;;;;;;0.70;0.70;;;1.40;80.10;;;;;;5101853;28;20397;-66
2023/02/26 03:45:41;;;;;;;0.70;0.70;;;1.30;80.00;;;;;;5074166;28;20567;-67
2023/02/26 03:48:09;;;;;;;0.70;0.70;;;1.40;79.90;;;;;;5103693;28;20455;-66
2023/02/26 03:50:46;;;;;;;0.70;0.70;;;1.40;79.90;;;;;;5097691;28;20028;-66
2023/02/26 03:53:18;;;;;;;0.98;0.88;;;1.40;80.00;;;;;;5102121;28;20043;-66
2023/02/26 03:55:55;;;;;;;0.52;0.52;;;1.30;79.80;;;;;;5105780;27;20474;-66
2023/02/26 03:58:21;;;;;;;0.60;0.60;;;1.30;79.80;;;;;;5106509;28;20124;-67
2023/02/26 04:00:56;;;;;;;0.70;0.70;;;1.30;79.90;;;;;;5101282;28;20481;-66
2023/02/26 04:03:43;;;;;;;0.70;0.70;;;1.30;79.90;;;;;;5096172;28;20020;-65
2023/02/26 04:06:09;;;;;;;0.68;0.68;;;1.30;79.90;;;;;;5103493;28;20041;-65
2023/02/26 04:08:35;;;;;;;0.60;0.60;;;1.30;79.80;;;;;;5106276;28;20085;-66
2023/02/26 04:11:19;;;;;;;1.83;0.80;;;1.30;79.90;;;;;;5102638;28;20035;-65
2023/02/26 04:13:45;;;;;;;0.60;0.60;;;1.20;79.80;;;;;;5103081;28;20080;-66
2023/02/26 04:16:11;;;;;;;0.60;0.60;;;1.20;79.90;;;;;;5097455;28;20477;-66
2023/02/26 04:18:37;;;;;;;0.70;0.70;;;1.20;80.00;;;;;;5101017;28;20032;-66
2023/02/26 04:21:03;;;;;;;0.60;0.60;;;1.10;80.00;;;;;;5097694;28;20027;-66
2023/02/26 04:23:29;;;;;;;0.80;0.80;;;1.10;80.00;;;;;;5095346;28;20032;-66
2023/02/26 04:25:54;;;;;;;0.57;0.57;;;1.10;80.00;;;;;;5092309;28;20185;-66
2023/02/26 04:28:20;;;;;;;0.68;0.68;;;1.10;80.00;;;;;;5101218;28;20024;-65
2023/02/26 04:30:45;;;;;;;0.70;0.70;;;1.00;80.00;;;;;;5102180;28;20462;-64
2023/02/26 04:33:12;;;;;;;0.75;0.75;;;1.10;80.10;;;;;;5098958;28;20039;-65
2023/02/26 04:35:38;;;;;;;0.75;0.75;;;1.00;79.90;;;;;;5097068;28;20039;-64
2023/02/26 04:38:04;;;;;;;0.82;0.82;;;1.00;79.90;;;;;;5098969;28;20019;-65
2023/02/26 04:40:30;;;;;;;0.80;0.80;;;1.00;79.80;;;;;;5103513;28;20032;-64
2023/02/26 04:42:56;;;;;;;0.70;0.70;;;1.00;79.90;;;;;;5104909;28;20039;-65
2023/02/26 04:45:21;;;;;;;0.75;0.75;;;1.00;79.90;;;;;;5102253;28;20054;-65
2023/02/26 04:47:47;;;;;;;0.80;0.80;;;1.00;79.90;;;;;;5109833;28;20474;-65
2023/02/26 04:50:13;;;;;;;0.65;0.65;;;0.90;79.80;;;;;;5111908;27;20027;-65
2023/02/26 04:52:39;;;;;;;0.65;0.65;;;0.90;79.80;;;;;;5111156;28;20023;-64
2023/02/26 04:55:06;;;;;;;0.70;0.70;;;0.90;79.80;;;;;;5120279;27;20498;-65
2023/02/26 04:57:32;;;;;;;0.75;0.75;;;0.90;79.70;;;;;;5115795;27;20028;-66
2023/02/26 04:59:58;;;;;;;0.68;0.68;;;0.90;79.70;;;;;;5116640;27;20664;-65
2023/02/26 05:02:23;;;;;;;2.97;0.88;;;0.90;79.70;;;;;;5119467;27;20026;-65
2023/02/26 05:04:49;;;;;;;0.70;0.70;;;0.90;79.70;;;;;;5117556;27;20106;-66
2023/02/26 05:07:15;;;;;;;0.70;0.70;;;0.90;79.60;;;;;;5118186;27;20102;-65
2023/02/26 05:09:40;;;;;;;0.60;0.60;;;0.90;79.60;;;;;;5115861;27;20029;-65
2023/02/26 05:12:06;;;;;;;0.80;0.80;;;0.80;79.50;;;;;;5107080;27;20055;-65
2023/02/26 05:14:31;;;;;;;0.70;0.70;;;0.80;79.50;;;;;;5123499;27;20027;-66
2023/02/26 05:16:57;;;;;;;0.60;0.60;;;0.80;79.40;;;;;;5105041;27;20059;-65
2023/02/26 05:19:23;;;;;;;0.95;0.80;;;0.80;79.40;;;;;;5119322;27;20035;-65
2023/02/26 05:21:48;;;;;;;0.70;0.70;;;0.80;79.40;;;;;;5109121;27;20187;-65
2023/02/26 05:24:14;;;;;;;0.77;0.77;;;0.80;79.30;;;;;;5114320;27;20023;-66
2023/02/26 05:26:40;;;;;;;0.73;0.73;;;0.80;79.30;;;;;;5105597;28;20657;-65
2023/02/26 05:29:06;;;;;;;0.80;0.80;;;0.70;79.30;;;;;;5105456;28;20039;-65
2023/02/26 05:31:31;;;;;;;0.70;0.70;;;0.70;79.40;;;;;;5101663;28;20020;-65
2023/02/26 05:33:57;;;;;;;0.88;0.88;;;0.70;79.40;;;;;;5098960;27;20028;-65
2023/02/26 05:36:22;;;;;;;0.60;0.60;;;0.70;79.40;;;;;;5100300;27;20024;-65
2023/02/26 05:38:48;;;;;;;0.70;0.70;;;0.60;79.40;;;;;;5103212;28;20063;-64
2023/02/26 05:41:14;;;;;;;0.68;0.68;;;0.60;79.30;;;;;;5102759;27;20031;-65
2023/02/26 05:43:40;;;;;;;0.70;0.70;;;0.60;79.40;;;;;;5107586;28;20032;-65
2023/02/26 05:46:06;;;;;;;0.80;0.80;;;0.60;79.40;;;;;;5103517;28;20610;-65
2023/02/26 05:48:31;;;;;;;0.70;0.70;;;0.60;79.30;;;;;;5111689;27;20095;-64
2023/02/26 05:50:57;;;;;;;0.63;0.63;;;0.60;79.30;;;;;;5105420;27;20024;-65
2023/02/26 05:53:23;;;;;;;0.70;0.70;;;0.60;79.20;;;;;;5107094;28;20031;-65
2023/02/26 05:55:49;;;;;;;0.73;0.73;;;0.60;79.20;;;;;;5106616;28;20084;-66
2023/02/26 05:58:15;;;;;;;0.80;0.80;;;0.60;79.20;;;;;;5120800;27;20039;-65
2023/02/26 06:00:41;;;;;;;0.75;0.73;;;0.60;79.20;;;;;;5116247;27;20043;-65
2023/02/26 06:03:06;;;;;;;0.80;0.80;;;0.60;79.20;;;;;;5119529;27;20493;-65
2023/02/26 06:05:32;;;;;;;1.15;0.80;;;0.50;79.20;;;;;;5119241;27;20474;-65
2023/02/26 06:07:57;;;;;;;0.73;0.73;;;0.60;79.20;;;;;;5119171;27;20528;-65
2023/02/26 06:10:23;;;;;;;0.80;0.80;;;0.60;79.20;;;;;;5110288;27;20057;-64
2023/02/26 06:12:49;;;;;;;0.80;0.80;;;0.60;79.20;;;;;;5112371;27;20091;-64
2023/02/26 06:15:14;;;;;;;0.88;0.88;;;0.60;79.20;;;;;;5113900;27;20115;-64
2023/02/26 06:17:40;;;;;;;0.75;0.75;;;0.50;79.00;;;;;;5118734;27;20027;-66
2023/02/26 06:20:06;;;;;;;0.60;0.60;;;0.50;79.00;;;;;;5109414;27;20039;-65
2023/02/26 06:22:32;;;;;;;0.70;0.70;;;0.50;79.00;;;;;;5109550;27;20031;-64
2023/02/26 06:24:58;;;;;;;0.73;0.73;;;0.50;79.00;;;;;;5105776;27;20028;-65
2023/02/26 06:27:24;;;;;;;0.80;0.80;;;0.50;78.90;;;;;;5099774;28;20036;-65
2023/02/26 06:29:49;;;;;;;0.90;0.90;;;0.50;79.00;;;;;;5107407;27;20067;-65
2023/02/26 06:32:15;;;;;;;0.70;0.70;;;0.50;79.00;;;;;;5108448;28;20449;-65
2023/02/26 06:34:41;;;;;;;0.60;0.60;;;0.50;78.90;;;;;;5097542;28;20058;-65
2023/02/26 06:37:06;;;;;;;1.08;0.73;;;0.50;78.80;;;;;;5104528;28;20042;-66
2023/02/26 06:39:32;;;;;;;1.73;0.88;;;0.50;78.80;;;;;;5105067;28;20132;-65
2023/02/26 06:41:58;;;;;;;0.70;0.70;;;0.50;78.70;;;;;;5098065;28;20027;-65
2023/02/26 06:44:23;;;;;;;0.70;0.70;;;0.50;78.70;;;;;;5101704;28;20024;-65
2023/02/26 06:46:49;;;;;;;0.80;0.80;;;0.50;78.60;;;;;;5098412;28;20038;-65
2023/02/26 06:49:15;;;;;;;0.98;0.90;;;0.50;78.50;;;;;;5100651;28;20031;-66
2023/02/26 06:51:40;;;;;;;1.20;0.70;;;0.60;78.50;;;;;;5100135;27;20020;-66
2023/02/26 06:54:06;;;;;;;0.65;0.65;;;0.60;78.30;;;;;;5100975;28;20027;-66
2023/02/26 06:56:31;;;;;;;0.70;0.70;;;0.60;78.30;;;;;;5109870;27;20027;-66
2023/02/26 06:58:57;;;;;;;0.70;0.70;;;0.60;78.20;;;;;;5110885;27;20107;-65
2023/02/26 07:01:23;;;;;;;0.70;0.70;;;0.70;78.20;;;;;;5104599;28;20024;-65
2023/02/26 07:03:49;;;;;;;0.70;0.70;;;0.70;78.20;;;;;;5108731;27;20036;-65
2023/02/26 07:06:15;;;;;;;0.80;0.80;;;0.70;78.10;;;;;;5097871;27;20031;-65
2023/02/26 07:08:41;;;;;;;0.70;0.70;;;0.70;77.90;;;;;;5101520;28;20028;-65
2023/02/26 07:11:08;;;;;;;1.02;0.90;;;0.80;78.00;;;;;;5099899;28;20019;-66
2023/02/26 07:13:36;;;;;;;0.70;0.70;;;0.80;77.80;;;;;;5101867;28;20111;-66
2023/02/26 07:16:02;;;;;;;0.90;0.90;;;0.90;77.80;;;;;;5098570;27;20024;-66
2023/02/26 07:18:28;;;;;;;1.00;1.00;;;1.00;77.70;;;;;;5097992;27;20086;-65
2023/02/26 07:20:53;;;;;;;0.75;0.75;;;1.00;77.60;;;;;;5106391;27;22352;-66
2023/02/26 07:23:19;;;;;;;0.90;0.90;;;1.00;77.50;;;;;;5097963;27;20024;-66
2023/02/26 07:25:47;;;;;;;0.80;0.80;;;1.10;77.10;;;;;;5108489;27;20152;-66
2023/02/26 07:28:13;;;;;;;0.82;0.82;;;1.10;77.20;;;;;;5111042;27;20027;-66
2023/02/26 07:30:41;;;;;;;0.70;0.70;;;1.10;77.10;;;;;;5108619;27;20673;-66
2023/02/26 07:33:06;;;;;;;1.15;0.80;;;1.20;77.10;;;;;;5106955;28;20027;-66
2023/02/26 07:35:32;;;;;;;0.60;0.60;;;1.20;77.00;;;;;;5106256;28;20031;-66
2023/02/26 07:37:58;;;;;;;0.80;0.80;;;1.30;77.00;;;;;;5109235;27;20102;-66
2023/02/26 07:40:23;;;;;;;0.70;0.70;;;1.40;77.00;;;;;;5102397;28;20020;-66
2023/02/26 07:42:49;;;;;;;0.75;0.75;;;1.40;76.80;;;;;;5110577;27;20103;-66
2023/02/26 07:45:21;;;;;;;1.58;0.82;;;1.50;76.80;;;;;;5105200;28;20668;-66
2023/02/26 07:47:50;;;;;;;0.70;0.70;;;1.50;76.70;;;;;;5106108;27;20015;-66
2023/02/26 07:50:16;;;;;;;0.80;0.80;;;1.60;76.60;;;;;;5112458;27;20268;-66
2023/02/26 07:52:41;;;;;;;0.70;0.70;;;1.60;76.50;;;;;;5106167;27;20020;-66
2023/02/26 07:55:08;;;;;;;0.80;0.80;;;1.70;76.50;;;;;;5100212;27;20032;-67
2023/02/26 07:57:34;;;;;;;0.73;0.73;;;1.70;76.40;;;;;;5109125;28;20033;-66
2023/02/26 08:00:00;;;;;;;0.85;0.85;;;1.80;76.30;;;;;;5107249;27;20032;-66
2023/02/26 08:02:25;;;;;;;0.80;0.80;;;1.90;76.40;;;;;;5105415;28;20127;-66
2023/02/26 08:04:51;;;;;;;0.80;0.80;;;2.00;76.00;;;;;;5102360;28;20043;-65
2023/02/26 08:07:17;;;;;;;0.75;0.75;;;2.00;76.10;;;;;;5108965;28;20534;-67
2023/02/26 08:09:43;;;;;;;0.70;0.70;;;2.00;76.00;;;;;;5101638;28;20049;-66
2023/02/26 08:12:09;;;;;;;0.68;0.63;;;2.10;76.10;;;;;;5107531;28;20480;-65
2023/02/26 08:14:34;;;;;;;0.70;0.70;;;2.20;76.00;;;;;;5100494;28;20032;-66
2023/02/26 08:17:00;;;;;;;0.65;0.65;;;2.20;75.80;;;;;;5101601;28;20044;-66
2023/02/26 08:19:25;;;;;;;0.70;0.70;;;2.30;75.80;;;;;;5110597;27;20027;-66
2023/02/26 08:21:51;;;;;;;0.80;0.80;;;2.30;75.50;;;;;;5113181;27;20035;-66
2023/02/26 08:24:17;;;;;;;0.80;0.80;;;2.30;75.10;;;;;;5108734;27;20036;-66
2023/02/26 08:26:44;;;;;;;1.58;0.90;;;2.30;75.30;;;;;;5114568;27;20024;-66
2023/02/26 08:29:10;;;;;;;0.70;0.70;;;2.40;75.30;;;;;;5118266;27;20020;-66
2023/02/26 08:31:36;;;;;;;0.80;0.80;;;2.40;75.40;;;;;;5102282;27;20024;-66
2023/02/26 08:34:01;;;;;;;0.98;0.80;;;2.50;75.40;;;;;;5119828;27;20061;-66
2023/02/26 08:36:27;;;;;;;1.67;0.77;;;2.60;75.40;;;;;;5115611;27;20023;-66
2023/02/26 08:38:53;;;;;;;0.65;0.65;;;2.60;75.20;;;;;;5098452;28;20028;-66
2023/02/26 08:41:18;;;;;;;0.75;0.75;;;2.70;75.10;;;;;;5101874;28;20047;-66
2023/02/26 08:43:44;;;;;;;1.40;0.80;;;2.70;75.00;;;;;;5111385;28;20020;-66
2023/02/26 08:46:09;;;;;;;0.63;0.63;;;2.70;74.80;;;;;;5102853;28;20032;-66
2023/02/26 08:48:35;;;;;;;0.85;0.70;;;2.80;74.90;;;;;;5099709;28;20031;-66
2023/02/26 08:51:01;;;;;;;1.42;0.80;;;2.90;74.80;;;;;;5102690;28;20016;-66
2023/02/26 08:53:26;;;;;;;0.57;0.57;;;2.90;74.40;;;;;;5113579;27;20111;-66
2023/02/26 08:55:52;;;;;;;0.65;0.65;;;3.00;74.60;;;;;;5109665;27;20469;-66
2023/02/26 08:58:19;;;;;;;1.58;1.05;;;3.00;74.00;;;;;;5107186;27;20031;-66
2023/02/26 09:00:45;;;;;;;1.23;0.70;;;3.00;74.20;;;;;;5105705;28;20084;-66
2023/02/26 09:03:11;;;;;;;1.10;0.60;;;3.10;74.10;;;;;;5105065;28;20072;-66
2023/02/26 09:05:37;;;;;;;0.73;0.73;;;3.10;73.10;;;;;;5106776;28;20096;-66
2023/02/26 09:08:03;;;;;;;2.15;0.73;;;3.10;73.40;;;;;;5120663;27;20065;-66
2023/02/26 09:10:29;;;;;;;1.30;0.70;;;3.20;73.60;;;;;;5098718;28;20024;-66
2023/02/26 09:12:55;;;;;;;0.95;0.75;;;3.20;73.60;;;;;;5104094;28;20034;-66
2023/02/26 09:15:20;;;;;;;0.70;0.70;;;3.30;73.70;;;;;;5112027;27;20030;-66
2023/02/26 09:17:46;;;;;;;1.00;0.70;;;3.30;73.50;;;;;;5095986;27;20034;-66
2023/02/26 09:20:13;;;;;;;0.60;0.60;;;3.30;73.30;;;;;;5096123;27;20059;-66
2023/02/26 09:22:39;;;;;;;0.70;0.70;;;3.40;73.30;;;;;;5102306;28;20418;-67
2023/02/26 09:25:05;;;;;;;1.67;0.80;;;3.40;70.10;;;;;;5104078;27;20150;-66
2023/02/26 09:27:33;;;;;;;1.95;0.82;;;3.40;72.10;;;;;;5109920;27;20023;-66
2023/02/26 09:29:58;;;;;;;2.35;0.73;;;3.40;70.80;;;;;;5103293;27;20024;-67
2023/02/26 09:32:25;;;;;;;1.13;0.80;;;3.50;72.00;;;;;;5108470;27;20020;-66
2023/02/26 09:34:51;;;;;;;0.85;0.85;;;3.50;70.70;;;;;;5102571;27;20020;-66
2023/02/26 09:37:18;;;;;;;2.08;0.80;;;3.50;68.80;;;;;;5102627;27;20040;-67
2023/02/26 09:39:43;;;;;;;0.90;0.90;;;3.60;70.30;;;;;;5100790;27;20032;-67
2023/02/26 09:42:48;;;;;;;1.05;0.88;;;3.60;70.40;;;;;;5094075;28;20040;-66
2023/02/26 09:45:41;;;;;;;1.02;0.70;;;3.60;70.10;;;;;;5092829;27;20028;-67
2023/02/26 09:48:11;;;;;;;1.00;0.90;;;3.60;70.10;;;;;;5097837;28;20577;-66
2023/02/26 09:50:44;;;;;;;0.68;0.68;;;3.70;70.20;;;;;;5092850;28;20024;-67
2023/02/26 09:53:27;;;;;;;0.60;0.60;;;3.80;70.10;;;;;;5093070;28;20085;-67
2023/02/26 09:55:57;;;;;;;0.60;0.60;;;3.80;69.30;;;;;;5095774;27;20496;-68
2023/02/26 09:58:34;;;;;;;0.63;0.60;;;3.80;68.40;;;;;;5097937;28;20019;-68
2023/02/26 10:01:29;;;;;;;0.57;0.57;;;3.90;69.20;;;;;;5095420;28;20081;-68
2023/02/26 10:04:22;;;;;;;0.93;0.93;;;3.90;67.00;;;;;;5097299;28;20111;-68
2023/02/26 10:06:48;;;;;;;0.50;0.50;;;3.90;67.80;;;;;;5098082;28;20036;-68
2023/02/26 10:10:01;;;;;;;0.85;0.70;;;4.00;67.80;;;;;;5098327;27;20012;-68
2023/02/26 10:12:31;;;;;;;0.80;0.80;;;4.00;64.90;;;;;;5054370;28;20102;-67
2023/02/26 10:14:57;;;;;;;0.60;0.60;;;4.00;66.40;;;;;;5095154;27;20032;-68
2023/02/26 10:17:38;;;;;;;0.65;0.65;;;4.00;65.40;;;;;;5100808;27;20593;-68
2023/02/26 10:20:16;;;;;;;0.60;0.60;;;4.00;65.10;;;;;;5102394;27;20044;-68
2023/02/26 10:23:00;;;;;;;1.30;0.70;;;4.00;64.20;;;;;;5099085;27;20570;-68
2023/02/26 10:25:34;;;;;;;0.70;0.70;;;4.10;65.80;;;;;;5099351;27;20486;-68
2023/02/26 10:28:08;;;;;;;1.30;1.00;;;4.20;64.20;;;;;;5098095;27;20389;-68
2023/02/26 10:30:45;;;;;;;1.50;0.93;;;4.20;64.50;;;;;;5100666;27;20031;-67
2023/02/26 10:33:28;;;;;;;2.50;1.25;;;4.40;63.90;;;;;;5103615;27;20031;-69
2023/02/26 10:36:01;;;;;;;1.90;1.00;;;4.40;63.30;;;;;;5101647;27;20627;-67
2023/02/26 10:38:30;;;;;;;1.67;0.85;;;4.60;63.90;;;;;;5100057;27;20020;-68
2023/02/26 10:41:04;;;;;;;2.38;0.80;;;4.60;61.70;;;;;;5100714;27;20383;-68
2023/02/26 10:43:41;;;;;;;1.00;0.80;;;4.60;61.30;;;;;;5099386;28;20019;-67
2023/02/26 10:46:58;;;;;;;1.10;0.80;;;4.60;60.80;;;;;;5100175;27;20042;-68
2023/02/26 10:49:46;;;;;;;0.70;0.70;;;4.50;59.80;;;;;;5071495;27;20509;-66
2023/02/26 10:52:18;;;;;;;1.15;0.80;;;4.60;62.70;;;;;;5099532;27;20023;-67
2023/02/26 10:55:00;;;;;;;1.50;0.70;;;4.60;61.60;;;;;;5103125;27;20505;-68
2023/02/26 10:57:36;;;;;;;0.70;0.70;;;4.70;63.10;;;;;;5100588;27;20763;-70
2023/02/26 11:00:04;;;;;;;1.10;0.70;;;4.60;63.00;;;;;;5103880;27;20032;-68
2023/02/26 11:02:45;;;;;;;1.42;1.00;;;4.70;60.70;;;;;;5099394;27;20107;-68
2023/02/26 11:05:23;;;;;;;2.10;0.47;;;4.70;62.20;;;;;;5102016;27;20042;-68
2023/02/26 11:07:54;;;;;;;3.78;1.05;;;4.60;60.90;;;;;;5104241;27;20698;-67
2023/02/26 11:10:23;;;;;;;0.50;0.50;;;4.60;60.50;;;;;;5097081;28;20099;-67
2023/02/26 11:12:50;;;;;;;1.05;0.70;;;4.50;60.40;;;;;;5096574;28;20479;-67
2023/02/26 11:15:21;;;;;;;0.47;0.47;;;4.60;60.50;;;;;;5097209;28;20039;-67
2023/02/26 11:17:52;;;;;;;2.20;0.73;;;4.50;60.80;;;;;;5098023;28;20115;-67
2023/02/26 11:20:35;;;;;;;0.60;0.60;;;4.60;60.00;;;;;;5098786;28;20032;-67
2023/02/26 11:23:02;;;;;;;1.60;0.70;;;4.70;61.00;;;;;;5097563;28;20537;-68
2023/02/26 11:25:30;;;;;;;1.77;0.60;;;4.70;61.10;;;;;;5113901;27;20500;-68
2023/02/26 11:28:06;;;;;;;0.70;0.70;;;4.80;60.80;;;;;;5104597;27;20026;-67
2023/02/26 11:30:36;;;;;;;0.60;0.60;;;4.80;59.00;;;;;;5101103;27;20071;-67
2023/02/26 11:33:22;;;;;;;0.55;0.55;;;4.90;59.40;;;;;;5108774;27;20015;-68
2023/02/26 11:35:48;;;;;;;1.13;0.73;;;5.00;59.50;;;;;;5108574;27;20400;-67
2023/02/26 11:38:24;;;;;;;2.70;0.90;;;5.00;58.70;;;;;;5110915;27;20097;-67
2023/02/26 11:40:54;;;;;;;0.73;0.60;;;5.00;59.80;;;;;;5108428;27;20023;-68
2023/02/26 11:43:22;;;;;;;1.15;0.70;;;5.30;61.10;;;;;;5104321;27;20426;-67
2023/02/26 11:45:53;;;;;;;0.70;0.70;;;5.40;60.90;;;;;;5105409;27;20020;-67
2023/02/26 11:48:26;;;;;;;1.13;0.60;;;5.50;61.00;;;;;;5111855;27;20027;-67
2023/02/26 11:50:59;;;;;;;1.35;0.88;;;5.50;61.00;;;;;;5106333;27;20034;-67
2023/02/26 11:53:40;;;;;;;1.00;0.60;;;5.60;60.00;;;;;;5110602;28;20075;-68
2023/02/26 11:56:13;;;;;;;0.73;0.70;;;5.60;61.10;;;;;;5109463;27;20027;-67
2023/02/26 11:58:43;;;;;;;1.38;0.70;;;5.60;61.60;;;;;;5108127;28;20023;-68
2023/02/26 12:01:11;;;;;;;0.60;0.60;;;5.60;61.30;;;;;;5111478;27;20055;-68
2023/02/26 12:03:42;;;;;;;0.50;0.50;;;5.70;61.40;;;;;;5112104;27;20027;-67
2023/02/26 12:06:26;;;;;;;0.65;0.65;;;5.80;61.80;;;;;;5109166;28;20221;-68
2023/02/26 12:08:52;;;;;;;0.60;0.60;;;5.80;60.00;;;;;;5105491;28;20134;-67
2023/02/26 12:11:24;;;;;;;0.85;0.80;;;5.90;58.30;;;;;;5110820;27;20108;-68
2023/02/26 12:14:10;;;;;;;1.55;0.73;;;5.90;60.80;;;;;;5105381;28;20028;-67
2023/02/26 12:16:42;;;;;;;0.77;0.77;;;6.00;60.50;;;;;;5106071;28;20061;-68
2023/02/26 12:19:20;;;;;;;0.90;0.68;;;6.20;60.20;;;;;;5112671;28;20031;-67
2023/02/26 12:21:51;;;;;;;0.60;0.60;;;6.20;56.90;;;;;;5103561;28;20098;-67
2023/02/26 12:24:36;;;;;;;0.75;0.68;;;6.20;58.30;;;;;;5106861;28;20466;-67
2023/02/26 12:27:24;;;;;;;0.73;0.70;;;6.20;56.60;;;;;;5110963;28;20020;-68
2023/02/26 12:30:18;;;;;;;0.75;0.57;;;6.10;55.90;;;;;;5111827;28;20031;-67
2023/02/26 12:33:18;;;;;;;0.57;0.57;;;6.00;58.40;;;;;;5107976;27;20441;-68
2023/02/26 12:35:56;;;;;;;2.55;0.70;;;6.30;59.30;;;;;;5106960;28;20015;-68
2023/02/26 12:38:35;;;;;;;1.15;0.80;;;6.30;58.70;;;;;;5109908;28;20035;-67
2023/02/26 12:41:09;;;;;;;0.60;0.60;;;6.30;58.50;;;;;;5111590;27;20481;-67
2023/02/26 12:43:37;;;;;;;0.80;0.80;;;6.40;58.70;;;;;;5108895;28;20060;-66
2023/02/26 12:46:10;;;;;;;0.82;0.70;;;6.60;59.20;;;;;;5106876;28;20047;-67
2023/02/26 12:49:18;;;;;;;1.48;0.57;;;6.80;59.40;;;;;;5107981;28;20018;-67
2023/02/26 12:52:05;;;;;;;0.77;0.65;;;7.00;60.00;;;;;;5106343;28;20044;-67
2023/02/26 12:54:57;;;;;;;0.98;0.68;;;7.30;60.20;;;;;;5104643;28;20108;-68
2023/02/26 12:57:52;;;;;;;1.98;0.77;;;7.30;57.80;;;;;;5104579;28;20092;-67
2023/02/26 13:00:33;;;;;;;0.60;0.60;;;7.40;59.50;;;;;;5111699;28;20031;-67
2023/02/26 13:03:30;;;;;;;0.60;0.60;;;7.40;59.60;;;;;;5108454;28;20028;-67
2023/02/26 13:06:15;;;;;;;0.50;0.50;;;7.40;58.60;;;;;;5108585;27;20039;-67
2023/02/26 13:09:08;;;;;;;0.60;0.60;;;7.40;58.90;;;;;;5113426;27;20413;-67
2023/02/26 13:12:01;;;;;;;0.68;0.60;;;7.50;58.50;;;;;;5116056;27;20035;-67
2023/02/26 13:15:00;;;;;;;0.55;0.55;;;7.60;58.90;;;;;;5112267;27;20046;-68
2023/02/26 13:17:51;;;;;;;0.57;0.57;;;7.60;58.80;;;;;;5108734;27;20494;-68
2023/02/26 13:20:25;;;;;;;0.50;0.50;;;7.50;57.60;;;;;;5115391;27;20062;-66
2023/02/26 13:22:56;;;;;;;0.60;0.60;;;7.50;58.30;;;;;;5111304;27;20361;-67
2023/02/26 13:25:36;;;;;;;2.53;0.60;;;7.70;59.00;;;;;;5112820;27;20027;-67